Time;durP1;ratioP1;P1;durP2;ratioP2;P2;SDS_P1;SDS_P2;PMS_P1;PMS_P2;Temp;Humidity;BMP_temperature;BMP_pressure;BME280_temperature;BME280_humidity;BME280_pressure;Samples;Min_cycle;Max_cycle;Signal;HPM_P1;HPM_P2
2021/09/23 00:00:07;;;;;;;4.22;3.63;;;12.70;68.90;;;;;;4994420;28;20098;-63
2021/09/23 00:05:26;;;;;;;5.50;3.35;;;12.70;69.00;;;;;;4990676;28;20462;-63
2021/09/23 00:07:55;;;;;;;5.38;3.53;;;12.70;69.10;;;;;;5013980;28;20421;-63
2021/09/23 00:10:23;;;;;;;4.65;3.75;;;12.60;69.10;;;;;;5013978;28;20088;-63
2021/09/23 00:12:51;;;;;;;4.85;3.75;;;12.60;69.10;;;;;;5014037;28;20105;-63
2021/09/23 00:15:18;;;;;;;3.70;3.30;;;12.60;69.30;;;;;;5013757;28;20489;-63
2021/09/23 00:17:47;;;;;;;3.38;2.95;;;12.60;69.30;;;;;;5008259;28;20045;-63
2021/09/23 00:20:21;;;;;;;3.65;3.08;;;12.60;69.40;;;;;;4993923;28;20034;-63
2021/09/23 00:22:47;;;;;;;3.05;2.85;;;12.60;69.20;;;;;;4993607;28;20018;-63
2021/09/23 00:25:13;;;;;;;4.10;3.17;;;12.60;69.50;;;;;;4993486;28;20026;-63
2021/09/23 00:27:40;;;;;;;3.05;2.75;;;12.60;69.40;;;;;;4993241;28;20030;-63
2021/09/23 00:30:07;;;;;;;4.10;3.25;;;12.60;69.50;;;;;;4993599;28;20049;-63
2021/09/23 00:32:33;;;;;;;3.20;2.90;;;12.60;69.50;;;;;;5012422;28;20030;-63
2021/09/23 00:34:59;;;;;;;4.90;3.30;;;12.60;69.40;;;;;;5012068;28;20416;-63
2021/09/23 00:37:25;;;;;;;3.67;3.20;;;12.70;69.50;;;;;;4994289;28;20035;-63
2021/09/23 00:39:51;;;;;;;3.40;3.10;;;12.70;69.50;;;;;;4993184;28;20050;-63
2021/09/23 00:42:16;;;;;;;3.53;2.90;;;12.70;69.50;;;;;;4993519;28;20030;-63
2021/09/23 00:44:56;;;;;;;4.22;3.10;;;12.70;69.50;;;;;;5011767;28;20018;-63
2021/09/23 00:47:22;;;;;;;3.92;3.30;;;12.70;69.50;;;;;;5011517;28;20053;-63
2021/09/23 00:49:48;;;;;;;3.58;3.08;;;12.70;69.60;;;;;;4998337;28;20061;-63
2021/09/23 00:52:14;;;;;;;3.38;2.97;;;12.70;69.40;;;;;;4996026;28;20022;-63
2021/09/23 00:54:40;;;;;;;4.00;3.00;;;12.70;69.40;;;;;;4996709;28;20052;-63
2021/09/23 00:57:06;;;;;;;4.13;3.33;;;12.70;69.40;;;;;;4997051;28;20043;-63
2021/09/23 00:59:31;;;;;;;3.00;2.55;;;12.70;69.40;;;;;;4997145;28;20458;-63
2021/09/23 01:01:57;;;;;;;4.35;3.20;;;12.80;69.50;;;;;;5005878;28;20116;-63
2021/09/23 01:04:22;;;;;;;2.95;2.75;;;12.80;69.50;;;;;;5016628;28;20041;-63
2021/09/23 01:06:51;;;;;;;3.42;3.13;;;12.70;69.50;;;;;;5016406;28;20045;-63
2021/09/23 01:09:17;;;;;;;2.90;2.70;;;12.80;69.50;;;;;;5016794;28;20449;-63
2021/09/23 01:11:43;;;;;;;3.67;3.10;;;12.80;69.70;;;;;;5001505;28;20096;-63
2021/09/23 01:14:10;;;;;;;4.25;3.17;;;12.80;69.70;;;;;;4997097;28;20029;-63
2021/09/23 01:16:37;;;;;;;3.47;3.17;;;12.80;69.70;;;;;;5012759;28;20065;-63
2021/09/23 01:19:03;;;;;;;4.50;3.67;;;12.80;69.60;;;;;;5016160;28;20014;-63
2021/09/23 01:21:29;;;;;;;4.53;3.67;;;12.80;69.50;;;;;;5016194;28;20033;-63
2021/09/23 01:23:55;;;;;;;4.65;3.90;;;12.80;69.70;;;;;;5016054;28;20033;-63
2021/09/23 01:26:28;;;;;;;4.18;3.50;;;12.80;69.50;;;;;;5016123;28;20409;-63
2021/09/23 01:28:54;;;;;;;3.63;3.20;;;12.80;69.60;;;;;;5000469;28;20532;-63
2021/09/23 01:31:20;;;;;;;4.82;3.97;;;12.80;69.50;;;;;;4996475;28;20026;-63
2021/09/23 01:33:47;;;;;;;4.03;3.63;;;12.80;69.70;;;;;;4998088;28;20053;-63
2021/09/23 01:36:13;;;;;;;5.13;3.47;;;12.80;69.50;;;;;;5015979;28;20433;-63
2021/09/23 01:38:39;;;;;;;3.78;3.20;;;12.80;69.60;;;;;;5015938;28;20101;-63
2021/09/23 01:41:05;;;;;;;3.95;3.22;;;12.80;69.50;;;;;;5015874;28;20466;-63
2021/09/23 01:43:30;;;;;;;3.72;3.40;;;12.80;70.40;;;;;;5015901;28;20425;-63
2021/09/23 01:45:56;;;;;;;4.10;3.58;;;12.80;69.70;;;;;;5015216;28;20492;-63
2021/09/23 01:48:22;;;;;;;3.60;3.03;;;12.80;69.80;;;;;;5000986;28;20022;-63
2021/09/23 01:50:47;;;;;;;4.07;3.30;;;12.70;69.60;;;;;;4995984;28;20023;-63
2021/09/23 01:53:13;;;;;;;4.15;3.33;;;12.70;69.70;;;;;;4995990;28;20034;-63
2021/09/23 01:55:39;;;;;;;5.63;3.38;;;12.70;69.70;;;;;;4995969;28;20026;-64
2021/09/23 01:58:05;;;;;;;4.95;3.50;;;12.80;69.90;;;;;;4995939;28;20389;-63
2021/09/23 02:00:30;;;;;;;5.82;3.80;;;12.70;69.90;;;;;;4998986;28;20021;-63
2021/09/23 02:02:56;;;;;;;4.28;3.72;;;12.80;69.80;;;;;;5014811;28;20037;-63
2021/09/23 02:05:22;;;;;;;5.00;3.40;;;12.70;69.80;;;;;;5015683;28;20026;-63
2021/09/23 02:07:48;;;;;;;3.53;3.20;;;12.80;69.90;;;;;;5015397;28;20363;-63
2021/09/23 02:10:14;;;;;;;3.97;3.38;;;12.70;69.90;;;;;;5015294;28;20034;-63
2021/09/23 02:12:40;;;;;;;4.13;3.25;;;12.70;69.90;;;;;;5015196;28;20054;-63
2021/09/23 02:15:08;;;;;;;4.10;3.10;;;12.70;69.90;;;;;;5015142;28;20084;-63
2021/09/23 02:17:34;;;;;;;5.60;4.07;;;12.70;70.00;;;;;;5006875;28;20030;-63
2021/09/23 02:20:00;;;;;;;4.88;3.80;;;12.70;70.10;;;;;;4995476;28;20039;-63
2021/09/23 02:22:26;;;;;;;3.97;3.35;;;12.70;70.10;;;;;;4995873;28;20553;-63
2021/09/23 02:24:53;;;;;;;3.58;3.10;;;12.70;70.20;;;;;;4995425;28;20022;-63
2021/09/23 02:27:19;;;;;;;3.80;3.40;;;12.70;70.50;;;;;;4995323;28;20101;-63
2021/09/23 02:29:45;;;;;;;4.72;3.67;;;12.70;70.60;;;;;;4995389;28;20030;-63
2021/09/23 02:32:11;;;;;;;5.45;3.58;;;12.60;70.50;;;;;;4995382;28;20036;-63
2021/09/23 02:34:37;;;;;;;5.40;4.00;;;12.60;70.50;;;;;;5006581;28;20025;-63
2021/09/23 02:37:03;;;;;;;4.25;3.72;;;12.60;70.50;;;;;;5014104;28;20066;-63
2021/09/23 02:39:29;;;;;;;4.13;3.40;;;12.60;70.70;;;;;;5014734;28;20057;-63
2021/09/23 02:41:55;;;;;;;4.53;3.55;;;12.60;70.80;;;;;;5014898;28;20021;-63
2021/09/23 02:44:20;;;;;;;4.40;4.00;;;12.60;70.80;;;;;;5014708;28;20505;-63
2021/09/23 02:46:47;;;;;;;4.97;4.07;;;12.60;70.90;;;;;;5008540;28;20019;-63
2021/09/23 02:49:12;;;;;;;4.78;3.72;;;12.60;71.00;;;;;;4998759;28;20084;-63
2021/09/23 02:51:38;;;;;;;4.00;3.47;;;12.60;71.00;;;;;;4994941;28;20482;-63
2021/09/23 02:54:04;;;;;;;4.38;3.70;;;12.60;71.00;;;;;;4994975;28;20061;-63
2021/09/23 02:56:30;;;;;;;4.85;3.97;;;12.60;71.10;;;;;;4994763;28;20046;-63
2021/09/23 02:58:55;;;;;;;3.92;3.47;;;12.60;71.20;;;;;;4994936;28;20030;-63
2021/09/23 03:01:22;;;;;;;3.92;3.53;;;12.50;71.20;;;;;;4994847;28;20022;-63
2021/09/23 03:03:47;;;;;;;5.07;3.92;;;12.60;71.30;;;;;;4995066;28;20034;-63
2021/09/23 03:06:13;;;;;;;5.30;3.58;;;12.50;71.30;;;;;;4994710;28;20030;-63
2021/09/23 03:08:40;;;;;;;4.03;3.63;;;12.60;71.40;;;;;;4994355;28;20030;-63
2021/09/23 03:11:05;;;;;;;4.18;3.40;;;12.50;71.50;;;;;;5005649;28;20030;-63
2021/09/23 03:13:31;;;;;;;5.35;3.55;;;12.60;71.70;;;;;;5013264;28;20056;-63
2021/09/23 03:15:57;;;;;;;4.22;3.63;;;12.60;71.80;;;;;;5011791;28;20025;-63
2021/09/23 03:18:23;;;;;;;6.70;3.88;;;12.50;71.70;;;;;;5013348;28;20032;-63
2021/09/23 03:20:49;;;;;;;4.15;3.75;;;12.60;71.90;;;;;;5014190;28;20026;-63
2021/09/23 03:23:16;;;;;;;3.90;3.50;;;12.60;71.80;;;;;;5014277;28;20069;-63
2021/09/23 03:25:42;;;;;;;3.78;3.20;;;12.60;72.10;;;;;;5002696;28;20097;-63
2021/09/23 03:28:08;;;;;;;3.03;2.70;;;12.60;72.00;;;;;;4994245;28;20478;-63
2021/09/23 03:30:35;;;;;;;3.63;3.10;;;12.60;72.00;;;;;;4994491;28;20382;-63
2021/09/23 03:33:05;;;;;;;3.92;3.50;;;12.60;72.10;;;;;;4994230;28;20029;-63
2021/09/23 03:35:32;;;;;;;3.13;2.83;;;12.60;72.10;;;;;;4997947;28;20080;-63
2021/09/23 03:37:58;;;;;;;2.75;2.33;;;12.60;72.00;;;;;;4992944;28;20537;-63
2021/09/23 03:40:24;;;;;;;2.17;2.08;;;12.60;72.10;;;;;;4994108;28;20105;-63
2021/09/23 03:42:49;;;;;;;4.20;2.80;;;12.60;72.10;;;;;;4993659;28;20109;-63
2021/09/23 03:45:15;;;;;;;2.40;2.20;;;12.60;72.30;;;;;;4993931;28;20033;-63
2021/09/23 03:47:41;;;;;;;2.60;2.40;;;12.60;72.10;;;;;;4994253;28;20057;-63
2021/09/23 03:50:07;;;;;;;2.85;2.65;;;12.60;71.90;;;;;;4993980;28;20474;-63
2021/09/23 03:52:33;;;;;;;2.80;2.60;;;12.60;72.00;;;;;;4994116;28;20042;-63
2021/09/23 03:54:59;;;;;;;2.97;2.67;;;12.60;72.20;;;;;;4993869;28;20385;-63
2021/09/23 03:57:26;;;;;;;2.97;2.67;;;12.60;72.00;;;;;;4993823;28;20465;-63
2021/09/23 03:59:52;;;;;;;3.10;2.80;;;12.60;72.20;;;;;;4993457;28;20085;-63
2021/09/23 04:02:18;;;;;;;3.38;2.83;;;12.60;72.10;;;;;;4993778;28;20034;-63
2021/09/23 04:04:43;;;;;;;3.75;2.95;;;12.60;72.10;;;;;;4993634;28;20022;-63
2021/09/23 04:07:09;;;;;;;3.42;2.80;;;12.60;72.10;;;;;;4993705;28;20029;-63
2021/09/23 04:09:35;;;;;;;3.53;2.95;;;12.60;72.00;;;;;;4993802;28;20022;-63
2021/09/23 04:12:00;;;;;;;3.95;3.17;;;12.60;71.90;;;;;;4993600;28;20058;-63
2021/09/23 04:14:26;;;;;;;3.30;3.00;;;12.60;72.00;;;;;;4993601;28;20027;-63
2021/09/23 04:16:52;;;;;;;4.03;2.92;;;12.60;72.00;;;;;;5005567;28;20026;-63
2021/09/23 04:19:18;;;;;;;4.80;3.70;;;12.60;72.00;;;;;;4993378;28;20022;-63
2021/09/23 04:21:44;;;;;;;4.03;3.10;;;12.60;72.10;;;;;;4993390;28;20023;-63
2021/09/23 04:24:10;;;;;;;4.13;3.03;;;12.70;72.20;;;;;;4993418;28;20018;-63
2021/09/23 04:26:36;;;;;;;4.78;3.53;;;12.70;72.20;;;;;;4993058;28;20034;-63
2021/09/23 04:29:02;;;;;;;3.33;3.03;;;12.70;72.20;;;;;;4993472;28;20037;-63
2021/09/23 04:31:28;;;;;;;5.32;4.47;;;12.70;72.20;;;;;;4993404;28;20084;-63
2021/09/23 04:33:54;;;;;;;4.32;3.55;;;12.70;72.20;;;;;;4993258;28;20097;-64
2021/09/23 04:36:19;;;;;;;3.80;3.20;;;12.70;72.30;;;;;;4993605;28;20022;-63
2021/09/23 04:38:45;;;;;;;4.05;3.40;;;12.70;72.30;;;;;;4992590;28;20560;-63
2021/09/23 04:41:11;;;;;;;6.70;4.22;;;12.70;72.40;;;;;;4993110;28;20022;-63
2021/09/23 04:43:41;;;;;;;4.38;3.80;;;12.80;72.50;;;;;;4993353;28;20431;-63
2021/09/23 04:46:08;;;;;;;5.00;3.95;;;12.70;72.60;;;;;;4993489;28;20057;-63
2021/09/23 04:48:34;;;;;;;4.55;3.70;;;12.70;72.60;;;;;;4993021;28;20068;-63
2021/09/23 04:51:00;;;;;;;5.32;3.83;;;12.70;73.30;;;;;;4997486;28;20026;-63
2021/09/23 04:53:26;;;;;;;5.68;4.18;;;12.80;72.80;;;;;;4992959;28;20106;-63
2021/09/23 04:55:52;;;;;;;6.55;4.00;;;12.80;72.80;;;;;;4993140;28;20477;-63
2021/09/23 04:58:17;;;;;;;5.32;3.75;;;12.80;72.80;;;;;;4994304;28;20378;-63
2021/09/23 05:00:43;;;;;;;4.75;4.00;;;12.80;72.80;;;;;;5000687;28;20030;-63
2021/09/23 05:03:10;;;;;;;4.18;3.55;;;12.80;72.80;;;;;;5007206;28;20034;-63
2021/09/23 05:05:38;;;;;;;5.35;4.28;;;12.80;72.90;;;;;;5006069;28;20363;-63
2021/09/23 05:08:04;;;;;;;4.70;4.10;;;12.80;72.80;;;;;;5006474;28;20473;-63
2021/09/23 05:10:30;;;;;;;5.50;4.28;;;12.80;72.90;;;;;;5005968;28;20026;-63
2021/09/23 05:12:55;;;;;;;5.88;4.60;;;12.80;72.80;;;;;;5011963;28;20097;-63
2021/09/23 05:15:21;;;;;;;6.07;4.80;;;12.80;72.90;;;;;;5010689;28;20113;-63
2021/09/23 05:17:48;;;;;;;5.65;4.82;;;12.80;72.80;;;;;;5005948;28;20030;-63
2021/09/23 05:20:15;;;;;;;6.28;4.47;;;12.80;72.80;;;;;;5010548;28;20055;-63
2021/09/23 05:22:41;;;;;;;5.25;4.70;;;12.80;72.90;;;;;;5013716;28;20022;-63
2021/09/23 05:25:07;;;;;;;4.88;4.38;;;12.70;72.90;;;;;;5008974;28;20030;-63
2021/09/23 05:27:33;;;;;;;5.35;4.28;;;12.80;73.00;;;;;;5014031;28;20033;-63
2021/09/23 05:30:00;;;;;;;5.38;4.70;;;12.80;73.00;;;;;;5008685;28;20030;-63
2021/09/23 05:32:26;;;;;;;5.05;4.00;;;12.80;73.00;;;;;;5009657;28;20503;-63
2021/09/23 05:34:52;;;;;;;4.35;3.70;;;12.80;73.00;;;;;;5008839;28;20030;-63
2021/09/23 05:37:18;;;;;;;5.18;4.35;;;12.80;73.70;;;;;;5008666;28;20169;-63
2021/09/23 05:39:44;;;;;;;4.63;4.15;;;12.90;73.20;;;;;;5012649;28;20073;-63
2021/09/23 05:42:10;;;;;;;7.22;5.07;;;12.90;73.10;;;;;;5012599;28;20032;-63
2021/09/23 05:44:35;;;;;;;6.15;4.13;;;13.00;73.10;;;;;;5012405;28;20030;-63
2021/09/23 05:47:01;;;;;;;6.40;5.03;;;13.00;73.10;;;;;;5003455;28;20033;-58
2021/09/23 05:49:27;;;;;;;6.65;5.28;;;13.00;72.90;;;;;;5004440;28;20258;-55
2021/09/23 05:51:55;;;;;;;6.15;5.07;;;13.00;72.60;;;;;;5004923;28;20054;-56
2021/09/23 05:54:22;;;;;;;5.97;5.03;;;12.90;72.60;;;;;;5008194;28;20034;-57
2021/09/23 05:56:47;;;;;;;6.15;5.20;;;12.90;72.70;;;;;;5001132;28;20014;-55
2021/09/23 05:59:13;;;;;;;6.00;5.10;;;12.80;72.80;;;;;;5001984;28;20087;-57
2021/09/23 06:01:39;;;;;;;6.00;4.50;;;12.70;72.90;;;;;;4998614;28;20037;-62
2021/09/23 06:04:04;;;;;;;8.00;6.50;;;12.60;73.00;;;;;;5001394;28;20046;-62
2021/09/23 06:06:32;;;;;;;6.85;5.57;;;12.60;73.30;;;;;;5004270;28;20497;-62
2021/09/23 06:08:57;;;;;;;7.97;5.28;;;12.60;73.20;;;;;;5004783;28;20030;-62
2021/09/23 06:11:23;;;;;;;6.57;5.20;;;12.60;73.40;;;;;;5001523;28;20049;-62
2021/09/23 06:13:48;;;;;;;6.85;5.45;;;12.50;73.40;;;;;;5000730;28;20027;-62
2021/09/23 06:16:14;;;;;;;6.65;5.25;;;12.50;73.50;;;;;;5002668;28;20052;-62
2021/09/23 06:18:40;;;;;;;6.15;4.72;;;12.50;73.60;;;;;;5002181;28;20030;-62
2021/09/23 06:21:07;;;;;;;6.68;4.93;;;12.50;73.60;;;;;;4999485;28;20030;-62
2021/09/23 06:23:34;;;;;;;7.65;5.47;;;12.60;73.60;;;;;;4995912;28;20037;-62
2021/09/23 06:26:00;;;;;;;7.70;5.70;;;12.50;73.50;;;;;;5003074;28;20084;-62
2021/09/23 06:28:26;;;;;;;6.68;4.70;;;12.50;73.50;;;;;;5000993;28;20087;-62
2021/09/23 06:30:51;;;;;;;5.50;4.75;;;12.50;73.60;;;;;;4999212;28;20044;-62
2021/09/23 06:33:17;;;;;;;6.15;4.60;;;12.50;73.60;;;;;;4999404;28;20037;-62
2021/09/23 06:35:43;;;;;;;6.45;5.22;;;12.50;73.40;;;;;;4996746;28;20493;-62
2021/09/23 06:38:08;;;;;;;6.57;5.32;;;12.50;73.40;;;;;;4994216;28;20054;-61
2021/09/23 06:40:35;;;;;;;5.45;4.38;;;12.50;73.50;;;;;;4993286;28;20634;-61
2021/09/23 06:43:01;;;;;;;5.65;4.50;;;12.50;73.30;;;;;;4994012;28;20080;-62
2021/09/23 06:45:26;;;;;;;7.05;4.88;;;12.50;73.40;;;;;;4999377;28;20025;-62
2021/09/23 06:47:52;;;;;;;7.03;4.88;;;12.50;73.40;;;;;;4997171;28;20029;-62
2021/09/23 06:50:18;;;;;;;5.40;4.47;;;12.60;73.40;;;;;;4996941;28;20038;-62
2021/09/23 06:52:43;;;;;;;5.55;4.35;;;12.60;73.30;;;;;;4996371;28;20515;-62
2021/09/23 06:55:10;;;;;;;5.25;4.18;;;12.60;73.30;;;;;;4993350;28;20028;-63
2021/09/23 06:57:36;;;;;;;5.57;4.70;;;12.60;73.20;;;;;;4999538;28;20738;-63
2021/09/23 07:00:03;;;;;;;5.22;4.10;;;12.60;73.20;;;;;;4996833;28;20032;-62
2021/09/23 07:02:28;;;;;;;5.35;4.20;;;12.70;73.10;;;;;;4989938;28;20103;-62
2021/09/23 07:04:54;;;;;;;5.68;4.63;;;12.70;73.00;;;;;;5001769;28;20509;-62
2021/09/23 07:07:20;;;;;;;6.82;4.97;;;12.70;72.90;;;;;;4995526;28;20044;-62
2021/09/23 07:09:46;;;;;;;5.18;3.88;;;12.70;72.70;;;;;;4996325;28;20045;-63
2021/09/23 07:12:13;;;;;;;4.75;3.90;;;12.70;72.70;;;;;;4992506;28;20361;-63
2021/09/23 07:14:39;;;;;;;5.95;3.90;;;12.70;72.70;;;;;;4994992;28;20033;-63
2021/09/23 07:17:05;;;;;;;5.57;4.30;;;12.70;72.60;;;;;;4995280;28;20030;-63
2021/09/23 07:19:31;;;;;;;5.90;4.88;;;12.70;72.70;;;;;;4997086;28;20040;-64
2021/09/23 07:21:57;;;;;;;5.10;4.20;;;12.80;72.70;;;;;;4991574;28;20040;-63
2021/09/23 07:24:24;;;;;;;5.00;4.35;;;12.80;72.80;;;;;;4994222;28;20026;-62
2021/09/23 07:26:50;;;;;;;4.60;3.88;;;12.80;72.80;;;;;;4995653;28;20022;-62
2021/09/23 07:29:16;;;;;;;5.82;3.97;;;12.80;72.60;;;;;;4994136;28;20096;-63
2021/09/23 07:31:43;;;;;;;4.68;3.85;;;12.90;72.40;;;;;;4993861;28;20403;-62
2021/09/23 07:34:09;;;;;;;5.10;4.38;;;12.90;72.40;;;;;;4992195;28;20176;-62
2021/09/23 07:36:35;;;;;;;5.13;4.03;;;12.90;72.50;;;;;;4991198;28;20038;-63
2021/09/23 07:39:01;;;;;;;4.60;3.92;;;13.00;72.40;;;;;;4992887;28;20048;-62
2021/09/23 07:41:26;;;;;;;4.63;3.40;;;13.10;72.20;;;;;;4990641;28;20031;-62
2021/09/23 07:43:52;;;;;;;4.70;3.90;;;13.10;72.10;;;;;;4987266;28;21098;-62
2021/09/23 07:46:17;;;;;;;3.92;3.47;;;13.20;72.10;;;;;;4992127;28;20026;-62
2021/09/23 07:48:43;;;;;;;3.80;3.40;;;13.30;72.10;;;;;;4989812;28;20045;-63
2021/09/23 07:51:09;;;;;;;4.50;3.92;;;13.30;71.90;;;;;;4989819;28;20029;-62
2021/09/23 07:53:34;;;;;;;4.38;3.97;;;13.40;71.80;;;;;;4990043;28;20087;-62
2021/09/23 07:56:00;;;;;;;5.07;3.80;;;13.40;71.80;;;;;;4990442;28;20029;-63
2021/09/23 07:58:26;;;;;;;4.80;4.07;;;13.50;71.60;;;;;;4987345;28;20355;-63
2021/09/23 08:00:52;;;;;;;5.95;4.22;;;13.50;71.40;;;;;;4986869;28;20102;-63
2021/09/23 08:03:18;;;;;;;5.00;4.05;;;13.50;71.80;;;;;;4989679;28;20072;-62
2021/09/23 08:05:43;;;;;;;5.90;4.40;;;13.50;71.00;;;;;;4983055;28;21022;-62
2021/09/23 08:08:09;;;;;;;5.28;4.43;;;13.50;71.10;;;;;;4988127;28;20397;-62
2021/09/23 08:10:36;;;;;;;5.25;4.53;;;13.50;71.10;;;;;;4991795;28;20044;-62
2021/09/23 08:13:03;;;;;;;5.15;4.20;;;13.50;71.10;;;;;;4990866;28;20038;-62
2021/09/23 08:15:30;;;;;;;4.90;4.22;;;13.50;71.10;;;;;;4988847;28;20026;-62
2021/09/23 08:17:56;;;;;;;6.13;4.40;;;13.50;71.20;;;;;;4992621;28;20040;-62
2021/09/23 08:20:22;;;;;;;5.53;4.35;;;13.60;71.00;;;;;;4994338;28;20030;-62
2021/09/23 08:22:48;;;;;;;4.45;3.92;;;13.60;71.10;;;;;;4989853;28;20032;-62
2021/09/23 08:25:14;;;;;;;5.15;3.80;;;13.60;71.10;;;;;;4986953;28;20466;-62
2021/09/23 08:27:39;;;;;;;4.45;3.80;;;13.70;71.10;;;;;;4991014;28;20504;-63
2021/09/23 08:30:06;;;;;;;4.15;3.40;;;13.70;70.90;;;;;;4997736;28;20088;-61
2021/09/23 08:32:32;;;;;;;4.43;3.67;;;13.70;70.60;;;;;;4991859;28;20037;-62
2021/09/23 08:34:57;;;;;;;4.53;3.83;;;13.70;70.20;;;;;;4992764;28;20079;-63
2021/09/23 08:37:23;;;;;;;4.07;3.35;;;13.70;70.10;;;;;;4994196;28;20034;-62
2021/09/23 08:39:49;;;;;;;4.45;3.72;;;13.70;70.20;;;;;;4993405;28;20038;-62
2021/09/23 08:42:15;;;;;;;5.05;4.00;;;13.70;70.40;;;;;;4995662;28;20034;-63
2021/09/23 08:44:42;;;;;;;4.30;3.90;;;13.80;70.30;;;;;;4993412;28;20033;-62
2021/09/23 08:47:08;;;;;;;4.30;3.63;;;13.80;70.50;;;;;;4998888;28;20030;-63
2021/09/23 08:49:34;;;;;;;4.60;3.80;;;13.90;70.30;;;;;;4991687;28;20488;-61
2021/09/23 08:52:00;;;;;;;3.90;3.38;;;13.90;70.00;;;;;;4989152;28;20035;-60
2021/09/23 08:54:25;;;;;;;3.80;3.40;;;14.00;70.00;;;;;;4991561;28;20509;-62
2021/09/23 08:56:51;;;;;;;4.90;4.03;;;14.00;70.30;;;;;;4991325;28;20029;-63
2021/09/23 08:59:17;;;;;;;6.15;4.22;;;14.10;69.90;;;;;;4995342;28;20109;-63
2021/09/23 09:01:49;;;;;;;5.00;3.72;;;14.20;69.80;;;;;;5000934;28;20716;-62
2021/09/23 09:04:15;;;;;;;3.90;3.22;;;14.30;69.30;;;;;;4996743;28;20508;-63
2021/09/23 09:07:10;;;;;;;4.00;3.60;;;14.40;69.10;;;;;;4995888;28;20034;-62
2021/09/23 09:09:35;;;;;;;3.42;2.92;;;14.50;68.90;;;;;;4973605;28;20061;-62
2021/09/23 09:12:01;;;;;;;4.60;3.78;;;14.50;68.90;;;;;;4996251;28;20034;-62
2021/09/23 09:14:29;;;;;;;5.22;3.78;;;14.60;68.60;;;;;;4985522;28;20030;-62
2021/09/23 09:17:04;;;;;;;5.13;3.85;;;14.70;68.30;;;;;;5005108;28;20087;-61
2021/09/23 09:19:52;;;;;;;5.00;4.13;;;14.70;68.20;;;;;;5000168;28;20628;-61
2021/09/23 09:22:22;;;;;;;4.03;3.33;;;14.70;67.90;;;;;;5000409;28;20034;-62
2021/09/23 09:24:56;;;;;;;5.18;4.00;;;14.80;68.20;;;;;;5001271;28;20025;-63
2021/09/23 09:27:32;;;;;;;6.95;4.38;;;14.80;67.80;;;;;;4997168;28;20030;-62
2021/09/23 09:30:07;;;;;;;5.47;4.40;;;14.70;67.60;;;;;;5002669;28;20041;-63
2021/09/23 09:32:40;;;;;;;6.10;4.47;;;14.70;67.60;;;;;;5004101;28;20030;-62
2021/09/23 09:35:08;;;;;;;7.10;5.18;;;14.60;67.70;;;;;;5001067;28;20029;-62
2021/09/23 09:37:34;;;;;;;7.07;5.50;;;14.50;67.90;;;;;;4997853;28;20037;-62
2021/09/23 09:40:00;;;;;;;7.13;5.40;;;14.50;68.10;;;;;;4995390;28;20075;-60
2021/09/23 09:42:28;;;;;;;6.72;5.22;;;14.40;68.00;;;;;;4999710;28;20413;-63
2021/09/23 09:44:55;;;;;;;7.25;5.75;;;14.30;68.00;;;;;;4997690;28;20034;-61
2021/09/23 09:47:33;;;;;;;7.93;5.97;;;14.30;68.40;;;;;;5004147;28;20038;-62
2021/09/23 09:50:15;;;;;;;6.38;5.15;;;14.20;68.50;;;;;;5003477;28;20062;-62
2021/09/23 09:52:56;;;;;;;6.85;5.43;;;14.10;68.70;;;;;;4999481;28;20600;-61
2021/09/23 09:55:27;;;;;;;6.10;4.90;;;14.10;68.90;;;;;;4994401;28;20076;-61
2021/09/23 09:57:53;;;;;;;6.75;5.10;;;14.00;69.00;;;;;;4997169;28;20038;-62
2021/09/23 10:00:22;;;;;;;7.00;4.95;;;14.00;69.00;;;;;;4993983;28;20470;-61
2021/09/23 10:02:48;;;;;;;6.63;5.47;;;14.00;69.10;;;;;;4999045;28;20037;-61
2021/09/23 10:05:16;;;;;;;6.60;5.55;;;14.00;69.20;;;;;;4998893;28;20048;-61
2021/09/23 10:07:47;;;;;;;7.35;5.80;;;14.00;69.30;;;;;;4998756;28;20034;-61
2021/09/23 10:10:15;;;;;;;6.18;4.95;;;13.90;69.20;;;;;;5001955;28;20068;-61
2021/09/23 10:12:42;;;;;;;7.80;6.15;;;13.90;69.30;;;;;;5000183;28;20049;-61
2021/09/23 10:15:14;;;;;;;7.68;5.53;;;13.90;69.40;;;;;;4993884;28;20034;-61
2021/09/23 10:17:42;;;;;;;8.65;6.70;;;13.90;69.50;;;;;;4993307;28;20038;-61
2021/09/23 10:20:09;;;;;;;7.47;5.95;;;13.90;69.70;;;;;;4997224;28;20509;-63
2021/09/23 10:22:36;;;;;;;9.77;7.22;;;13.90;69.70;;;;;;4995532;28;20068;-61
2021/09/23 10:25:05;;;;;;;8.77;6.38;;;13.90;69.60;;;;;;4995095;28;20056;-62
2021/09/23 10:30:18;;;;;;;6.22;5.05;;;13.90;69.70;;;;;;4997721;28;20733;-61
2021/09/23 10:32:45;;;;;;;7.63;5.45;;;13.90;69.80;;;;;;5004625;28;20026;-61
2021/09/23 10:35:16;;;;;;;8.07;5.68;;;14.00;69.70;;;;;;4996614;28;20061;-62
2021/09/23 10:37:42;;;;;;;8.68;4.85;;;14.00;69.70;;;;;;4993329;28;20030;-62
2021/09/23 10:40:14;;;;;;;5.82;4.47;;;14.00;69.70;;;;;;5002281;28;20038;-62
2021/09/23 10:42:40;;;;;;;5.50;4.93;;;14.00;69.50;;;;;;5001033;28;20052;-62
2021/09/23 10:45:08;;;;;;;5.78;4.55;;;14.00;69.50;;;;;;5004168;28;20041;-62
2021/09/23 10:47:36;;;;;;;5.63;4.53;;;14.00;69.80;;;;;;5003135;28;20032;-62
2021/09/23 10:50:06;;;;;;;5.68;4.53;;;14.00;69.80;;;;;;4997202;28;20394;-61
2021/09/23 10:52:36;;;;;;;5.77;4.87;;;14.10;69.70;;;;;;5002059;28;20034;-62
2021/09/23 10:55:04;;;;;;;5.55;4.38;;;14.20;69.60;;;;;;4995559;28;20034;-61
2021/09/23 10:57:30;;;;;;;5.18;4.50;;;14.20;69.70;;;;;;4994579;28;20025;-62
2021/09/23 11:00:01;;;;;;;5.13;4.45;;;14.30;69.50;;;;;;4997250;28;20025;-61
2021/09/23 11:02:29;;;;;;;6.20;4.63;;;14.40;69.20;;;;;;4997668;28;20096;-60
2021/09/23 11:04:58;;;;;;;6.32;4.85;;;14.40;69.10;;;;;;4998682;28;20044;-61
2021/09/23 11:07:25;;;;;;;8.73;4.70;;;14.50;69.00;;;;;;5000036;28;20029;-61
2021/09/23 11:10:20;;;;;;;5.30;4.40;;;14.50;68.70;;;;;;5004376;28;20029;-62
2021/09/23 11:12:49;;;;;;;5.20;3.67;;;14.50;68.60;;;;;;4996224;28;20137;-61
2021/09/23 11:15:18;;;;;;;6.25;4.43;;;14.60;69.00;;;;;;5000625;28;20487;-62
2021/09/23 11:17:44;;;;;;;4.80;4.22;;;14.60;69.20;;;;;;5001535;28;20038;-62
2021/09/23 11:20:13;;;;;;;5.00;4.25;;;14.60;69.10;;;;;;5003689;28;20073;-62
2021/09/23 11:22:50;;;;;;;4.72;4.15;;;14.70;69.00;;;;;;5003718;28;20092;-61
2021/09/23 11:25:20;;;;;;;4.32;3.75;;;14.70;68.40;;;;;;5003372;28;20425;-61
2021/09/23 11:27:47;;;;;;;4.30;3.90;;;14.70;68.40;;;;;;4994134;28;20033;-61
2021/09/23 11:30:15;;;;;;;4.57;3.75;;;14.70;68.30;;;;;;4994306;28;20057;-63
2021/09/23 11:32:50;;;;;;;4.32;3.67;;;14.70;68.90;;;;;;5001857;28;20033;-64
2021/09/23 11:35:21;;;;;;;4.65;3.53;;;14.70;68.10;;;;;;4997708;28;20040;-63
2021/09/23 11:37:47;;;;;;;4.38;3.90;;;14.80;68.20;;;;;;4995888;28;20133;-62
2021/09/23 11:40:20;;;;;;;6.28;4.43;;;14.80;67.80;;;;;;5000213;28;20128;-63
2021/09/23 11:42:45;;;;;;;5.38;4.22;;;14.90;67.70;;;;;;5004283;28;20511;-63
2021/09/23 11:45:20;;;;;;;4.13;3.63;;;14.90;67.90;;;;;;4997102;28;20108;-63
2021/09/23 11:47:51;;;;;;;4.65;3.83;;;14.90;67.80;;;;;;4998955;28;20116;-64
2021/09/23 11:50:39;;;;;;;4.78;3.78;;;15.00;67.80;;;;;;4992055;28;20067;-63
2021/09/23 11:53:13;;;;;;;5.38;4.28;;;15.00;67.50;;;;;;4988762;28;20037;-62
2021/09/23 11:55:53;;;;;;;6.65;5.07;;;15.10;67.50;;;;;;4996558;28;20208;-63
2021/09/23 11:58:19;;;;;;;5.57;4.53;;;15.20;67.50;;;;;;4996933;28;20041;-63
2021/09/23 12:00:49;;;;;;;5.32;4.75;;;15.20;67.20;;;;;;4989402;28;20038;-64
2021/09/23 12:03:18;;;;;;;5.18;4.30;;;15.20;67.00;;;;;;4989198;28;20552;-63
2021/09/23 12:05:45;;;;;;;6.40;5.28;;;15.30;67.00;;;;;;4991437;28;20029;-63
2021/09/23 12:08:20;;;;;;;6.65;5.35;;;15.30;66.90;;;;;;4990466;28;20044;-63
2021/09/23 12:10:53;;;;;;;6.53;5.80;;;15.30;66.80;;;;;;4996055;28;20084;-61
2021/09/23 12:15:53;;;;;;;;;;;15.20;66.40;;;;;;4997099;28;20041;-62
2021/09/23 12:18:21;;;;;;;8.82;7.68;;;15.20;66.20;;;;;;4989352;28;20269;-63
2021/09/23 12:20:50;;;;;;;10.23;7.93;;;15.20;66.20;;;;;;4994416;28;20541;-62
2021/09/23 12:23:28;;;;;;;8.93;7.97;;;15.20;66.10;;;;;;4990474;28;20129;-62
2021/09/23 12:26:36;;;;;;;9.35;8.05;;;15.10;66.10;;;;;;4991253;28;20030;-62
2021/09/23 12:29:09;;;;;;;9.48;8.02;;;15.10;66.00;;;;;;4992023;28;20025;-62
2021/09/23 12:31:42;;;;;;;10.20;8.40;;;15.00;66.10;;;;;;4995731;28;20030;-61
2021/09/23 12:34:13;;;;;;;10.65;9.00;;;15.00;66.10;;;;;;4994739;28;20030;-61
2021/09/23 12:36:48;;;;;;;9.98;8.13;;;14.90;66.10;;;;;;4997690;28;20052;-62
2021/09/23 12:39:18;;;;;;;11.30;9.73;;;14.90;66.30;;;;;;5001272;28;20128;-62
2021/09/23 12:41:59;;;;;;;10.63;8.63;;;14.80;66.10;;;;;;4997572;28;20030;-62
2021/09/23 12:44:31;;;;;;;9.80;8.27;;;14.80;66.40;;;;;;5000438;28;20299;-61
2021/09/23 12:47:09;;;;;;;;;;;14.80;66.50;;;;;;5007753;28;20034;-61
2021/09/23 12:49:39;;;;;;;8.65;6.95;;;14.70;66.30;;;;;;5004180;28;19914;-62
2021/09/23 12:52:16;;;;;;;9.90;7.55;;;14.80;66.60;;;;;;5000851;28;20481;-60
2021/09/23 12:54:58;;;;;;;8.02;6.80;;;14.80;66.60;;;;;;4998305;28;20037;-62
2021/09/23 12:57:32;;;;;;;9.30;7.30;;;14.80;66.30;;;;;;4996513;28;20121;-61